MSP weather

Minneapolis-St Paul International/Wold-Chamberlain Airport
Minneapolis, Minnesota, United States

Public forecast

Using degrees Fahrenheit for public forecast. Weather courtesy of forecast.io.

METAR (pilot weather report)

Retrieved 2019/04/21 11:53 UTC (28 minutes ago):

KMSP 211153Z 03007KT 020V090 10SM BKN150 BKN180 OVC220 13/06 A2978 RMK AO2 SLP081 PRESENT WX VCSH T01330056 10189 20122 53019

TAF (pilot weather forecast)

Retrieved 2019/04/21 12:22 UTC (0 seconds ago):

TAF KMSP 211120Z 2112/2218 01007KT P6SM -SHRA VCTS BKN120CB FM211500 03010KT P6SM SCT120 FM212300 04011KT P6SM BKN060 FM220300 04011KT P6SM VCTS OVC035CB FM220600 03012G18KT 5SM -SHRA BR VCTS OVC020CB FM221200 03012G18KT 4SM SHRA BR OVC015